< < Back
Terminal Aerodrome Forecast


Current Version              Previous Versions:   1  2  3  4  5  6  7  8  9  

Terminal Aerodrome Forecast

013
FTUS42 KCHS 011138
TAFCHS
TAF
KCHS 011138Z 0112/0212 VRB04KT P6SM VCSH SCT015 BKN060
      TEMPO 0115/0119 6SM SHRA SCT015 BKN030
     FM011900 19008KT P6SM VCSH SCT030 BKN150
     FM020000 VRB04KT P6SM SCT015 BKN200=

Latest METAR

169
SAUS80 KWBC 011600 RRI
MTRCHS
METAR KCHS 011556Z 07004KT 10SM FEW028TCU SCT040 SCT050 30/23 A2994 RMK
AO2 SLP137 TCU S T03000233


USA.gov is the U.S. government's official web portal to all federal, state and local government web resources and services.